Time;durP1;ratioP1;P1;durP2;ratioP2;P2;SDS_P1;SDS_P2;PMS_P1;PMS_P2;Temp;Humidity;BMP_temperature;BMP_pressure;BME280_temperature;BME280_humidity;BME280_pressure;Samples;Min_cycle;Max_cycle;Signal;HPM_P1;HPM_P2
2021/06/30 00:00:54;;;;;;;2.03;1.45;;;22.70;63.70;;;;;;5034462;28;20060;-43
2021/06/30 00:03:20;;;;;;;1.58;1.45;;;22.80;63.80;;;;;;5034695;28;20025;-43
2021/06/30 00:05:45;;;;;;;2.00;1.73;;;23.00;63.90;;;;;;5034151;28;20603;-43
2021/06/30 00:08:11;;;;;;;1.75;1.30;;;22.90;63.80;;;;;;5034098;28;20018;-44
2021/06/30 00:10:37;;;;;;;1.35;1.25;;;22.90;63.80;;;;;;5034615;28;20380;-43
2021/06/30 00:13:03;;;;;;;1.27;1.17;;;22.90;64.50;;;;;;5034506;28;20057;-44
2021/06/30 00:15:31;;;;;;;2.50;1.50;;;22.90;63.90;;;;;;5034544;28;20474;-44
2021/06/30 00:17:57;;;;;;;2.03;1.55;;;23.00;63.90;;;;;;5034391;28;20014;-43
2021/06/30 00:20:23;;;;;;;1.60;1.50;;;22.90;63.80;;;;;;5034192;28;20040;-43
2021/06/30 00:22:48;;;;;;;2.58;1.52;;;22.80;63.80;;;;;;5034234;28;20473;-43
2021/06/30 00:25:15;;;;;;;2.08;1.40;;;22.80;63.80;;;;;;5034303;28;20120;-43
2021/06/30 00:27:43;;;;;;;1.25;1.15;;;22.70;63.80;;;;;;5034246;28;20440;-43
2021/06/30 00:30:10;;;;;;;1.23;1.13;;;22.80;63.90;;;;;;5034299;28;20075;-44
2021/06/30 00:32:35;;;;;;;1.35;1.25;;;22.90;63.90;;;;;;5033818;28;20088;-43
2021/06/30 00:35:01;;;;;;;1.50;1.40;;;23.00;64.00;;;;;;5033846;28;20428;-43
2021/06/30 00:37:27;;;;;;;1.42;1.10;;;22.80;63.90;;;;;;5034078;28;20029;-43
2021/06/30 00:39:53;;;;;;;1.58;1.38;;;22.80;63.90;;;;;;5034031;28;20018;-44
2021/06/30 00:42:18;;;;;;;1.38;1.27;;;22.80;63.90;;;;;;5033965;28;20368;-43
2021/06/30 00:44:44;;;;;;;1.40;1.30;;;22.80;63.90;;;;;;5033577;28;20045;-43
2021/06/30 00:47:10;;;;;;;1.40;1.30;;;22.90;64.00;;;;;;5033934;28;20026;-43
2021/06/30 00:49:36;;;;;;;2.30;1.63;;;22.80;64.00;;;;;;5033769;28;20443;-43
2021/06/30 00:52:02;;;;;;;1.50;1.40;;;22.80;64.00;;;;;;5033617;28;20506;-44
2021/06/30 00:54:27;;;;;;;2.47;1.73;;;22.80;64.00;;;;;;5033457;28;20044;-43
2021/06/30 00:56:55;;;;;;;1.17;1.08;;;22.60;63.90;;;;;;5033341;28;20393;-43
2021/06/30 00:59:20;;;;;;;1.55;1.40;;;22.80;64.00;;;;;;5033418;28;20094;-43
2021/06/30 01:01:46;;;;;;;3.42;1.52;;;22.80;64.00;;;;;;5033358;28;20105;-44
2021/06/30 01:04:11;;;;;;;1.35;1.25;;;22.70;63.90;;;;;;5033053;28;20045;-43
2021/06/30 01:06:37;;;;;;;1.25;1.15;;;22.60;63.90;;;;;;5033302;28;20025;-43
2021/06/30 01:09:06;;;;;;;1.17;1.13;;;22.70;64.00;;;;;;5033182;28;20021;-43
2021/06/30 01:11:32;;;;;;;1.50;1.40;;;22.70;64.00;;;;;;5033478;28;20025;-43
2021/06/30 01:13:57;;;;;;;1.25;1.15;;;22.70;64.00;;;;;;5033201;28;20028;-43
2021/06/30 01:16:23;;;;;;;1.73;1.52;;;22.70;64.00;;;;;;5033474;28;20017;-43
2021/06/30 01:18:49;;;;;;;1.40;1.30;;;22.90;64.10;;;;;;5033384;28;20464;-43
2021/06/30 01:21:17;;;;;;;1.40;1.30;;;23.00;64.20;;;;;;5032485;28;20468;-43
2021/06/30 01:23:44;;;;;;;1.50;1.40;;;22.60;64.30;;;;;;5033057;28;20034;-43
2021/06/30 01:26:10;;;;;;;2.10;1.20;;;22.70;64.00;;;;;;5033318;28;20025;-43
2021/06/30 01:28:36;;;;;;;1.50;1.40;;;22.70;64.00;;;;;;5033203;28;20025;-44
2021/06/30 01:31:04;;;;;;;1.52;1.40;;;22.60;64.00;;;;;;5033250;28;20014;-43
2021/06/30 01:33:30;;;;;;;1.67;1.40;;;22.60;64.00;;;;;;5032932;28;20025;-44
2021/06/30 01:35:56;;;;;;;2.47;1.38;;;22.70;64.00;;;;;;5033355;28;20443;-43
2021/06/30 01:38:24;;;;;;;1.00;1.00;;;22.70;64.10;;;;;;5033295;28;20096;-43
2021/06/30 01:40:51;;;;;;;0.95;0.95;;;22.70;64.00;;;;;;5033328;28;20449;-43
2021/06/30 01:43:17;;;;;;;1.30;1.20;;;22.70;64.10;;;;;;5033200;28;20377;-43
2021/06/30 01:45:43;;;;;;;1.45;1.35;;;22.70;64.10;;;;;;5033187;28;20018;-42
2021/06/30 01:48:09;;;;;;;1.40;1.30;;;22.50;64.00;;;;;;5032712;28;20096;-44
2021/06/30 01:50:35;;;;;;;2.30;1.38;;;22.70;64.10;;;;;;5033105;28;20025;-45
2021/06/30 01:53:02;;;;;;;1.50;1.40;;;22.70;64.10;;;;;;5033096;28;20373;-43
2021/06/30 01:55:28;;;;;;;1.55;1.40;;;22.70;64.10;;;;;;5032716;28;20038;-44
2021/06/30 01:57:53;;;;;;;1.58;1.45;;;22.70;64.10;;;;;;5033093;28;20109;-43
2021/06/30 02:00:20;;;;;;;1.27;1.23;;;22.50;64.00;;;;;;5032995;28;20153;-43
2021/06/30 02:02:47;;;;;;;1.88;1.45;;;22.60;64.10;;;;;;5032656;28;20021;-45
2021/06/30 02:05:16;;;;;;;1.42;1.33;;;22.00;63.80;;;;;;5032590;28;20143;-43
2021/06/30 02:07:47;;;;;;;1.40;1.30;;;22.60;64.10;;;;;;5032938;28;20056;-43
2021/06/30 02:10:14;;;;;;;1.60;1.50;;;22.90;64.30;;;;;;5032765;28;20029;-43
2021/06/30 02:12:41;;;;;;;1.33;1.17;;;22.60;64.10;;;;;;5031408;28;20104;-43
2021/06/30 02:15:16;;;;;;;1.25;1.20;;;22.60;64.10;;;;;;5032789;28;20025;-43
2021/06/30 02:17:42;;;;;;;1.48;1.38;;;22.60;64.10;;;;;;5032884;28;20428;-43
2021/06/30 02:20:10;;;;;;;1.33;1.20;;;22.60;64.10;;;;;;5032811;28;20018;-43
2021/06/30 02:22:38;;;;;;;1.77;1.33;;;22.60;64.10;;;;;;5032495;28;20014;-43
2021/06/30 02:25:12;;;;;;;0.93;0.90;;;22.90;64.30;;;;;;5032714;28;20061;-46
2021/06/30 02:27:39;;;;;;;1.58;1.48;;;22.60;64.20;;;;;;5032725;28;20415;-49
2021/06/30 02:30:17;;;;;;;1.95;1.30;;;22.50;64.20;;;;;;5032756;28;20029;-46
2021/06/30 02:32:43;;;;;;;1.50;1.40;;;22.60;64.20;;;;;;5035935;28;20372;-45
2021/06/30 02:35:12;;;;;;;1.50;1.40;;;22.40;64.10;;;;;;5036559;28;20384;-48
2021/06/30 02:37:38;;;;;;;1.58;1.38;;;22.60;64.30;;;;;;5036184;28;20056;-44
2021/06/30 02:40:10;;;;;;;1.48;1.38;;;22.60;64.20;;;;;;5036458;28;20079;-45
2021/06/30 02:42:36;;;;;;;1.58;1.48;;;22.60;64.20;;;;;;5036541;28;20592;-47
2021/06/30 02:45:04;;;;;;;1.58;1.48;;;22.50;64.20;;;;;;5036212;28;20033;-44
2021/06/30 02:47:29;;;;;;;1.25;0.80;;;22.50;64.20;;;;;;5035774;28;20542;-43
2021/06/30 02:49:55;;;;;;;1.88;1.10;;;22.50;64.20;;;;;;5035769;28;20025;-44
2021/06/30 02:52:21;;;;;;;1.13;1.13;;;22.50;64.20;;;;;;5036095;28;20017;-43
2021/06/30 02:54:46;;;;;;;1.40;1.30;;;22.40;64.10;;;;;;5035983;28;20536;-43
2021/06/30 02:57:12;;;;;;;1.40;1.30;;;22.70;64.30;;;;;;5035695;28;20028;-43
2021/06/30 02:59:37;;;;;;;1.95;1.27;;;22.50;64.20;;;;;;5035642;28;20053;-44
2021/06/30 03:02:03;;;;;;;1.95;1.33;;;22.50;64.20;;;;;;5035805;28;20061;-43
2021/06/30 03:04:29;;;;;;;1.13;1.13;;;22.50;64.20;;;;;;5035280;28;20053;-43
2021/06/30 03:06:54;;;;;;;1.50;1.40;;;22.50;64.20;;;;;;5036100;28;20021;-43
2021/06/30 03:09:21;;;;;;;1.70;1.45;;;22.50;64.20;;;;;;5035724;28;20030;-43
2021/06/30 03:11:48;;;;;;;1.40;1.30;;;22.50;64.20;;;;;;5035709;28;20052;-42
2021/06/30 03:14:14;;;;;;;1.58;1.45;;;22.50;64.20;;;;;;5035632;28;20014;-43
2021/06/30 03:16:39;;;;;;;1.77;1.50;;;22.70;64.30;;;;;;5035290;28;20048;-43
2021/06/30 03:19:05;;;;;;;1.30;1.20;;;22.30;64.10;;;;;;5035538;28;20025;-43
2021/06/30 03:21:31;;;;;;;1.60;1.50;;;22.50;64.20;;;;;;5035626;28;20476;-44
2021/06/30 03:23:56;;;;;;;1.20;1.10;;;22.50;64.20;;;;;;5035736;28;20025;-43
2021/06/30 03:26:22;;;;;;;0.90;0.90;;;22.40;64.20;;;;;;5035336;28;20021;-43
2021/06/30 03:28:47;;;;;;;1.50;1.40;;;22.40;64.20;;;;;;5035460;28;20029;-43
2021/06/30 03:31:13;;;;;;;1.55;1.23;;;22.50;64.20;;;;;;5035477;28;20048;-43
2021/06/30 03:33:38;;;;;;;1.90;1.42;;;22.40;64.20;;;;;;5035301;28;20084;-43
2021/06/30 03:36:05;;;;;;;2.17;1.65;;;22.40;64.20;;;;;;5035246;28;20044;-43
2021/06/30 03:38:32;;;;;;;1.98;1.42;;;22.40;64.20;;;;;;5034972;28;20083;-44
2021/06/30 03:40:58;;;;;;;1.15;1.13;;;22.40;64.20;;;;;;5034874;28;20017;-43
2021/06/30 03:43:23;;;;;;;1.40;1.30;;;22.40;64.20;;;;;;5033786;28;20030;-43
2021/06/30 03:45:49;;;;;;;1.40;1.30;;;22.40;64.20;;;;;;5034832;28;20108;-43
2021/06/30 03:48:14;;;;;;;1.33;1.23;;;22.40;64.20;;;;;;5034705;28;20369;-43
2021/06/30 03:50:40;;;;;;;1.33;1.23;;;22.40;64.20;;;;;;5034920;28;20025;-43
2021/06/30 03:53:06;;;;;;;1.75;1.65;;;22.40;64.20;;;;;;5034642;28;20075;-43
2021/06/30 03:55:31;;;;;;;1.23;1.13;;;22.30;64.20;;;;;;5034808;28;20022;-43
2021/06/30 03:57:57;;;;;;;1.10;1.00;;;22.40;64.20;;;;;;5034872;28;20010;-43
2021/06/30 04:00:26;;;;;;;1.73;1.58;;;22.40;64.20;;;;;;5034506;28;20095;-43
2021/06/30 04:02:52;;;;;;;1.40;1.27;;;22.40;64.20;;;;;;5034779;28;20052;-42
2021/06/30 04:05:18;;;;;;;3.40;1.30;;;22.30;64.20;;;;;;5034301;28;20073;-45
2021/06/30 04:07:43;;;;;;;1.05;1.02;;;22.40;64.20;;;;;;5034676;28;20410;-42
2021/06/30 04:10:09;;;;;;;1.38;1.25;;;22.30;64.20;;;;;;5034565;28;20767;-43
2021/06/30 04:12:35;;;;;;;1.15;1.05;;;22.30;64.20;;;;;;5034488;28;20380;-43
2021/06/30 04:15:00;;;;;;;2.13;1.40;;;22.20;64.10;;;;;;5034232;28;20022;-44
2021/06/30 04:17:26;;;;;;;1.40;1.30;;;22.40;64.20;;;;;;5034438;28;20025;-43
2021/06/30 04:19:51;;;;;;;1.30;1.20;;;22.30;64.20;;;;;;5034407;28;20025;-43
2021/06/30 04:22:17;;;;;;;2.33;1.30;;;22.30;64.20;;;;;;5033996;28;20026;-43
2021/06/30 04:24:43;;;;;;;1.63;1.52;;;22.30;64.20;;;;;;5034226;28;20025;-43
2021/06/30 04:27:08;;;;;;;1.50;1.40;;;22.30;64.20;;;;;;5034346;28;20045;-43
2021/06/30 04:29:34;;;;;;;1.42;1.00;;;22.30;64.20;;;;;;5033852;28;20100;-43
2021/06/30 04:32:00;;;;;;;1.10;1.00;;;22.30;64.20;;;;;;5033922;28;20036;-43
2021/06/30 04:34:25;;;;;;;1.05;1.05;;;22.30;64.20;;;;;;5034159;28;20017;-43
2021/06/30 04:36:51;;;;;;;1.30;1.20;;;22.30;64.20;;;;;;5034064;28;20022;-43
2021/06/30 04:39:16;;;;;;;0.98;0.98;;;22.30;64.20;;;;;;5033982;28;20053;-43
2021/06/30 04:41:42;;;;;;;1.23;1.13;;;22.30;64.20;;;;;;5033945;28;20026;-43
2021/06/30 04:44:07;;;;;;;1.77;1.50;;;22.30;64.30;;;;;;5033903;28;20037;-43
2021/06/30 04:46:33;;;;;;;1.58;1.38;;;22.20;64.20;;;;;;5033934;28;20026;-43
2021/06/30 04:48:59;;;;;;;1.70;1.17;;;22.30;64.20;;;;;;5033574;28;20048;-43
2021/06/30 04:51:24;;;;;;;1.38;1.27;;;22.30;64.20;;;;;;5034016;28;20426;-43
2021/06/30 04:53:52;;;;;;;1.35;1.25;;;22.30;64.20;;;;;;5033616;28;20523;-43
2021/06/30 04:56:26;;;;;;;1.90;1.10;;;22.30;64.20;;;;;;5033384;28;20036;-43
2021/06/30 04:58:52;;;;;;;1.42;1.17;;;22.30;64.20;;;;;;5033686;28;20021;-43
2021/06/30 05:01:18;;;;;;;1.35;1.25;;;22.30;64.20;;;;;;5033541;28;20025;-44
2021/06/30 05:03:43;;;;;;;1.08;1.02;;;22.20;64.20;;;;;;5033230;28;20107;-44
2021/06/30 05:06:09;;;;;;;1.80;1.17;;;22.20;64.10;;;;;;5033277;28;20079;-43
2021/06/30 05:08:34;;;;;;;1.10;1.00;;;22.20;64.10;;;;;;5033535;28;20025;-44
2021/06/30 05:11:00;;;;;;;1.20;1.10;;;22.20;64.20;;;;;;5033166;28;20445;-44
2021/06/30 05:13:26;;;;;;;1.50;1.40;;;22.20;64.20;;;;;;5033553;28;20030;-44
2021/06/30 05:15:51;;;;;;;1.10;1.00;;;22.20;64.20;;;;;;5033519;28;20064;-43
2021/06/30 05:18:17;;;;;;;1.50;1.40;;;22.20;64.20;;;;;;5033524;28;20139;-44
2021/06/30 05:20:43;;;;;;;2.83;1.50;;;22.20;64.20;;;;;;5033481;28;20033;-43
2021/06/30 05:23:08;;;;;;;1.88;1.20;;;22.10;64.20;;;;;;5033313;28;20079;-43
2021/06/30 05:25:34;;;;;;;1.42;1.33;;;22.20;64.00;;;;;;5033306;28;20403;-42
2021/06/30 05:28:00;;;;;;;1.58;1.20;;;22.20;64.10;;;;;;5032947;28;20025;-43
2021/06/30 05:30:25;;;;;;;1.30;1.20;;;22.50;64.40;;;;;;5032722;28;20022;-43
2021/06/30 05:32:51;;;;;;;1.77;1.45;;;22.40;65.00;;;;;;5032841;28;20021;-43
2021/06/30 05:35:17;;;;;;;1.58;1.48;;;22.00;64.00;;;;;;5033198;28;20017;-43
2021/06/30 05:37:42;;;;;;;1.60;1.45;;;22.20;64.20;;;;;;5033099;28;20018;-43
2021/06/30 05:40:09;;;;;;;2.05;1.45;;;22.20;64.20;;;;;;5033063;28;20014;-43
2021/06/30 05:42:34;;;;;;;1.80;1.40;;;22.20;64.30;;;;;;5032960;28;20432;-42
2021/06/30 05:45:00;;;;;;;2.50;1.63;;;22.10;64.40;;;;;;5031758;28;20107;-43
2021/06/30 05:47:25;;;;;;;1.58;1.48;;;22.40;64.50;;;;;;5032617;28;20029;-43
2021/06/30 05:49:51;;;;;;;1.55;1.35;;;22.20;64.30;;;;;;5032827;28;20029;-43
2021/06/30 05:52:17;;;;;;;2.35;1.45;;;22.20;64.30;;;;;;5032820;28;20124;-43
2021/06/30 05:54:43;;;;;;;1.88;1.33;;;22.30;64.30;;;;;;5032758;28;20077;-43
2021/06/30 05:57:08;;;;;;;2.72;1.30;;;22.20;64.20;;;;;;5032557;28;20022;-42
2021/06/30 05:59:34;;;;;;;5.55;1.45;;;22.30;64.20;;;;;;5032753;28;20491;-43
2021/06/30 06:02:00;;;;;;;1.20;1.10;;;22.30;64.20;;;;;;5032838;28;20025;-43
2021/06/30 06:04:25;;;;;;;2.92;1.52;;;22.40;64.50;;;;;;5032253;28;20049;-44
2021/06/30 06:06:51;;;;;;;2.22;1.80;;;22.20;64.40;;;;;;5034749;28;20013;-43
2021/06/30 06:09:16;;;;;;;4.40;1.40;;;22.20;64.50;;;;;;5036891;28;20464;-43
2021/06/30 06:11:42;;;;;;;3.42;1.60;;;22.20;64.40;;;;;;5036829;28;20021;-44
2021/06/30 06:14:07;;;;;;;2.53;1.60;;;22.20;64.50;;;;;;5036450;28;20049;-45
2021/06/30 06:16:33;;;;;;;3.40;1.75;;;22.20;64.60;;;;;;5036712;28;20025;-43
2021/06/30 06:18:59;;;;;;;2.03;1.80;;;22.00;64.60;;;;;;5036626;28;20029;-43
2021/06/30 06:21:24;;;;;;;3.05;1.70;;;22.20;64.80;;;;;;5036618;28;20369;-43
2021/06/30 06:23:50;;;;;;;1.70;1.60;;;22.20;64.80;;;;;;5036234;28;20107;-43
2021/06/30 06:26:16;;;;;;;1.85;1.52;;;22.10;64.70;;;;;;5035067;28;20380;-44
2021/06/30 06:28:42;;;;;;;4.07;1.77;;;22.20;64.80;;;;;;5036280;28;20029;-43
2021/06/30 06:31:13;;;;;;;2.28;1.60;;;22.20;64.80;;;;;;5036187;28;20029;-42
2021/06/30 06:33:39;;;;;;;1.67;1.42;;;22.10;64.70;;;;;;5034642;28;20063;-43
2021/06/30 06:36:05;;;;;;;2.47;1.60;;;22.10;64.80;;;;;;5036157;28;20022;-43
2021/06/30 06:38:31;;;;;;;4.80;1.63;;;22.10;64.80;;;;;;5036154;28;20018;-42
2021/06/30 06:40:57;;;;;;;1.73;1.50;;;22.10;64.80;;;;;;5035756;28;20072;-42
2021/06/30 06:43:23;;;;;;;3.03;1.65;;;;;;;;;;5035998;28;20034;-43
2021/06/30 06:45:48;;;;;;;4.78;1.50;;;22.10;64.20;;;;;;5036026;28;20022;-43
2021/06/30 06:48:14;;;;;;;3.50;1.70;;;22.10;64.80;;;;;;5035884;28;20411;-43
2021/06/30 06:50:40;;;;;;;1.90;1.38;;;22.10;64.80;;;;;;5035710;28;20449;-42
2021/06/30 06:53:05;;;;;;;3.53;1.50;;;22.10;64.80;;;;;;5036023;28;20013;-43
2021/06/30 06:55:33;;;;;;;1.73;1.42;;;22.10;64.80;;;;;;5035965;28;20014;-43
2021/06/30 06:57:59;;;;;;;3.15;1.60;;;22.10;64.80;;;;;;5035991;28;20025;-42
2021/06/30 07:00:25;;;;;;;1.88;1.33;;;22.10;64.50;;;;;;5035701;28;20063;-42
2021/06/30 07:02:51;;;;;;;2.20;1.70;;;22.10;64.20;;;;;;5035527;28;20029;-42
2021/06/30 07:05:16;;;;;;;2.22;1.95;;;22.00;63.80;;;;;;5035368;28;20038;-43
2021/06/30 07:07:43;;;;;;;2.17;1.50;;;22.20;63.80;;;;;;5035871;28;20535;-42
2021/06/30 07:10:10;;;;;;;1.75;1.60;;;22.20;63.60;;;;;;5035792;28;20030;-42
2021/06/30 07:12:36;;;;;;;1.58;1.45;;;22.30;63.60;;;;;;5035658;28;20025;-42
2021/06/30 07:15:03;;;;;;;3.20;1.88;;;22.30;63.60;;;;;;5035614;28;20023;-42
2021/06/30 07:17:29;;;;;;;5.32;1.73;;;22.30;63.40;;;;;;5034410;28;20369;-43
2021/06/30 07:19:55;;;;;;;3.15;1.83;;;22.30;63.40;;;;;;5033813;28;20112;-42
2021/06/30 07:22:20;;;;;;;2.28;1.60;;;22.30;63.30;;;;;;5035634;28;20366;-41
2021/06/30 07:24:46;;;;;;;2.05;1.80;;;22.30;63.30;;;;;;5035074;28;20091;-42
2021/06/30 07:27:12;;;;;;;3.35;1.77;;;22.30;63.20;;;;;;5035055;28;20025;-42
2021/06/30 07:29:38;;;;;;;4.70;2.25;;;22.30;63.30;;;;;;5035243;28;20014;-42
2021/06/30 07:32:04;;;;;;;4.22;2.00;;;22.30;63.20;;;;;;5034998;28;20103;-42
2021/06/30 07:34:29;;;;;;;3.78;2.05;;;22.30;63.30;;;;;;5035247;28;20107;-42
2021/06/30 07:36:55;;;;;;;5.07;2.20;;;22.30;63.40;;;;;;5034845;28;20516;-42
2021/06/30 07:39:24;;;;;;;2.22;1.90;;;22.30;63.20;;;;;;5034762;28;20413;-42
2021/06/30 07:41:50;;;;;;;3.13;1.77;;;22.40;63.20;;;;;;5035115;28;20445;-41
2021/06/30 07:44:15;;;;;;;3.33;2.03;;;22.40;63.60;;;;;;5034686;28;20077;-42
2021/06/30 07:46:41;;;;;;;7.57;2.35;;;22.40;63.70;;;;;;5034907;28;20024;-42
2021/06/30 07:49:07;;;;;;;6.28;2.03;;;22.40;63.90;;;;;;5034896;28;20025;-41
2021/06/30 07:51:33;;;;;;;5.03;2.28;;;22.40;64.20;;;;;;5034855;28;20021;-42
2021/06/30 07:53:59;;;;;;;9.65;2.70;;;22.40;81.20;;;;;;5034727;28;20080;-41
2021/06/30 07:56:34;;;;;;;5.20;2.38;;;22.40;65.10;;;;;;5034343;28;20468;-43
2021/06/30 07:59:08;;;;;;;6.13;2.15;;;22.60;64.80;;;;;;5033552;28;20096;-43
2021/06/30 08:01:34;;;;;;;3.42;2.10;;;22.40;65.30;;;;;;5034652;28;20021;-44
2021/06/30 08:04:00;;;;;;;6.32;2.75;;;22.40;65.60;;;;;;5033124;28;20262;-43
2021/06/30 08:06:26;;;;;;;4.15;2.22;;;22.50;65.90;;;;;;5034414;28;20060;-43
2021/06/30 08:08:51;;;;;;;4.88;2.70;;;22.30;65.50;;;;;;5034604;28;20030;-44
2021/06/30 08:11:18;;;;;;;4.65;2.00;;;22.40;65.30;;;;;;5034339;28;20018;-43
2021/06/30 08:13:44;;;;;;;5.03;2.58;;;22.40;65.50;;;;;;5034728;28;20017;-43
2021/06/30 08:16:10;;;;;;;9.13;2.75;;;22.40;65.10;;;;;;5034730;28;20424;-43
2021/06/30 08:18:36;;;;;;;3.10;2.30;;;22.30;65.60;;;;;;5034462;28;20022;-42
2021/06/30 08:21:02;;;;;;;7.53;2.42;;;22.40;64.80;;;;;;5034562;28;20032;-44
2021/06/30 08:23:27;;;;;;;4.65;2.22;;;22.40;64.70;;;;;;5032802;28;20037;-43
2021/06/30 08:25:53;;;;;;;3.58;2.00;;;22.40;64.80;;;;;;5033946;28;20115;-43
2021/06/30 08:28:23;;;;;;;4.05;2.25;;;22.40;64.60;;;;;;5034216;28;20063;-43
2021/06/30 08:30:49;;;;;;;;;;;22.40;64.50;;;;;;5034468;28;20025;-44
2021/06/30 08:33:15;;;;;;;2.75;2.28;;;22.40;64.50;;;;;;5034294;28;20379;-43
2021/06/30 08:35:40;;;;;;;3.13;2.10;;;22.30;64.50;;;;;;5034260;28;20083;-44
2021/06/30 08:38:07;;;;;;;3.97;2.38;;;22.50;64.60;;;;;;5033761;28;20025;-43
2021/06/30 08:40:33;;;;;;;4.35;2.05;;;22.50;64.60;;;;;;5034051;28;20103;-42
2021/06/30 08:42:59;;;;;;;2.22;1.77;;;22.20;64.30;;;;;;5034073;28;20068;-43
2021/06/30 08:45:25;;;;;;;2.47;1.90;;;22.30;64.10;;;;;;5033653;28;20036;-43
2021/06/30 08:47:55;;;;;;;1.98;1.88;;;22.30;64.00;;;;;;5034201;28;20024;-43
2021/06/30 08:50:21;;;;;;;4.03;2.33;;;22.00;63.90;;;;;;5033931;28;20021;-43
2021/06/30 08:52:47;;;;;;;2.85;2.00;;;22.30;63.90;;;;;;5033967;28;20029;-43
2021/06/30 08:55:16;;;;;;;4.22;2.00;;;22.30;64.00;;;;;;5032266;28;20096;-44
2021/06/30 08:57:45;;;;;;;2.67;1.92;;;22.30;64.10;;;;;;5033834;28;20030;-43
2021/06/30 09:00:11;;;;;;;2.65;1.90;;;22.30;63.90;;;;;;5033801;28;20017;-43
2021/06/30 09:02:37;;;;;;;3.83;2.08;;;22.30;63.90;;;;;;5033419;28;20026;-43
2021/06/30 09:05:13;;;;;;;4.75;2.13;;;22.30;63.70;;;;;;5033053;28;20108;-43
2021/06/30 09:07:40;;;;;;;3.97;2.20;;;22.40;64.50;;;;;;5031968;28;20032;-43
2021/06/30 09:10:07;;;;;;;5.72;2.13;;;22.40;63.90;;;;;;5033371;28;20041;-43
2021/06/30 09:12:39;;;;;;;3.15;1.80;;;22.40;64.00;;;;;;5033888;28;20104;-43
2021/06/30 09:15:18;;;;;;;4.55;2.00;;;22.40;64.30;;;;;;5033607;28;20017;-43
2021/06/30 09:17:46;;;;;;;2.83;1.92;;;22.40;64.40;;;;;;5033460;28;20166;-43
2021/06/30 09:20:12;;;;;;;2.75;2.13;;;22.40;64.40;;;;;;5031877;28;20021;-43
2021/06/30 09:22:43;;;;;;;3.30;2.25;;;22.30;65.60;;;;;;5032964;28;20037;-44
2021/06/30 09:25:23;;;;;;;3.35;2.08;;;22.30;65.80;;;;;;5033110;28;20120;-42
2021/06/30 09:27:48;;;;;;;2.17;1.95;;;22.30;66.60;;;;;;5032961;28;20018;-43
2021/06/30 09:30:14;;;;;;;5.13;2.55;;;22.30;66.70;;;;;;5032978;28;20017;-42
2021/06/30 09:32:58;;;;;;;3.78;2.28;;;22.20;67.30;;;;;;5032827;28;20439;-42
2021/06/30 09:35:29;;;;;;;2.53;1.83;;;22.10;67.40;;;;;;5032565;28;20022;-42
2021/06/30 09:37:55;;;;;;;3.30;2.33;;;22.20;67.50;;;;;;5032831;28;20022;-52
2021/06/30 09:40:21;;;;;;;4.47;2.13;;;22.20;67.80;;;;;;5032490;28;20041;-42
2021/06/30 09:42:47;;;;;;;3.67;2.28;;;22.10;67.80;;;;;;5032674;28;20026;-43
2021/06/30 09:45:20;;;;;;;2.42;2.10;;;22.30;68.00;;;;;;5031660;28;20097;-42
2021/06/30 09:47:51;;;;;;;5.53;2.67;;;22.30;83.90;;;;;;5033045;28;20060;-42
2021/06/30 09:50:18;;;;;;;2.35;2.13;;;22.20;68.20;;;;;;5032949;28;20068;-43
2021/06/30 09:52:45;;;;;;;3.25;2.17;;;22.30;68.20;;;;;;5032956;28;20026;-42
2021/06/30 09:55:28;;;;;;;3.88;2.25;;;22.20;67.90;;;;;;5031559;28;20028;-43
2021/06/30 09:57:55;;;;;;;4.18;2.08;;;22.30;67.70;;;;;;5032682;28;20100;-43
2021/06/30 10:00:21;;;;;;;3.08;2.08;;;22.30;68.40;;;;;;5032887;28;20020;-43
2021/06/30 10:02:49;;;;;;;3.17;1.90;;;22.30;69.10;;;;;;5032577;28;20380;-43
2021/06/30 10:05:27;;;;;;;3.13;2.22;;;22.30;68.40;;;;;;5032126;28;20072;-43
2021/06/30 10:07:57;;;;;;;2.42;1.90;;;22.40;68.40;;;;;;5032574;28;20021;-43
2021/06/30 10:10:22;;;;;;;2.67;1.77;;;22.20;67.80;;;;;;5032552;28;20025;-43
2021/06/30 10:12:48;;;;;;;2.85;2.00;;;22.50;68.10;;;;;;5032248;28;20044;-43
2021/06/30 10:15:14;;;;;;;4.68;2.35;;;22.30;68.00;;;;;;5032521;28;20419;-43
2021/06/30 10:17:40;;;;;;;3.58;2.00;;;22.30;69.40;;;;;;5032627;28;20144;-43
2021/06/30 10:20:06;;;;;;;2.20;2.00;;;22.40;70.40;;;;;;5032416;28;20532;-43
2021/06/30 10:22:32;;;;;;;2.40;2.10;;;22.40;70.60;;;;;;5032646;28;20025;-43
2021/06/30 10:24:58;;;;;;;3.30;2.15;;;22.30;70.60;;;;;;5032519;28;20036;-44
2021/06/30 10:27:24;;;;;;;2.08;1.83;;;22.40;70.70;;;;;;5032595;28;20079;-43
2021/06/30 10:29:58;;;;;;;3.72;2.05;;;22.20;70.60;;;;;;5032586;28;20053;-43
2021/06/30 10:32:24;;;;;;;3.00;2.00;;;22.30;70.80;;;;;;5032233;28;20033;-43
2021/06/30 10:35:04;;;;;;;3.20;2.15;;;22.10;70.80;;;;;;5032190;28;20104;-44
2021/06/30 10:37:32;;;;;;;3.47;1.90;;;22.30;71.00;;;;;;5032514;28;20480;-42
2021/06/30 10:40:09;;;;;;;4.13;2.00;;;22.30;71.00;;;;;;5032362;28;20419;-43
2021/06/30 10:42:43;;;;;;;3.00;1.70;;;22.30;71.00;;;;;;5030969;28;20053;-43
2021/06/30 10:45:17;;;;;;;2.08;1.77;;;22.30;71.00;;;;;;5032215;28;20042;-43
2021/06/30 10:47:46;;;;;;;1.70;1.60;;;22.30;71.00;;;;;;5032037;28;20514;-42
2021/06/30 10:50:46;;;;;;;1.55;1.42;;;22.30;71.10;;;;;;5032310;28;20423;-43
2021/06/30 10:53:14;;;;;;;1.50;1.40;;;22.30;71.00;;;;;;5030021;28;20032;-43
2021/06/30 10:55:40;;;;;;;1.60;1.50;;;22.30;71.90;;;;;;5035742;28;20045;-43
2021/06/30 10:58:12;;;;;;;1.67;1.45;;;22.20;71.30;;;;;;5034483;28;20075;-42
2021/06/30 11:00:48;;;;;;;1.60;1.50;;;22.30;71.40;;;;;;5035820;28;20488;-42
2021/06/30 11:03:36;;;;;;;1.85;1.60;;;22.30;71.40;;;;;;5035762;28;20030;-42
2021/06/30 11:06:13;;;;;;;1.63;1.42;;;22.20;71.60;;;;;;5035814;28;20069;-42
2021/06/30 11:08:42;;;;;;;2.03;1.45;;;22.20;71.90;;;;;;5034190;28;20026;-43
2021/06/30 11:11:09;;;;;;;1.67;1.35;;;22.20;72.10;;;;;;5035647;28;20113;-43
2021/06/30 11:13:57;;;;;;;2.63;1.52;;;22.20;71.90;;;;;;5035722;28;20017;-42
2021/06/30 11:16:43;;;;;;;1.73;1.45;;;22.20;72.50;;;;;;5035707;28;20087;-43
2021/06/30 11:19:29;;;;;;;2.00;1.23;;;22.10;72.50;;;;;;5024819;28;20029;-43
2021/06/30 11:22:07;;;;;;;2.65;1.98;;;22.10;72.80;;;;;;5035208;28;20025;-43
2021/06/30 11:24:39;;;;;;;2.25;1.30;;;22.10;72.60;;;;;;5035207;28;20033;-43
2021/06/30 11:27:24;;;;;;;1.90;1.25;;;22.00;72.40;;;;;;5035477;28;20053;-43
2021/06/30 11:30:27;;;;;;;1.70;1.15;;;22.10;72.50;;;;;;5035239;28;20063;-43
2021/06/30 11:32:52;;;;;;;1.27;1.13;;;22.10;72.80;;;;;;5025629;28;20052;-43
2021/06/30 11:35:23;;;;;;;1.58;1.45;;;22.20;72.80;;;;;;5035289;28;20021;-43
2021/06/30 11:38:11;;;;;;;1.02;1.00;;;22.20;72.90;;;;;;5035251;28;20100;-43
2021/06/30 11:41:02;;;;;;;1.77;1.00;;;22.40;73.00;;;;;;5035335;28;20101;-43
2021/06/30 11:43:30;;;;;;;1.63;1.05;;;22.20;72.80;;;;;;5034354;28;20025;-44
2021/06/30 11:45:59;;;;;;;1.33;1.20;;;22.40;72.80;;;;;;5035242;28;20072;-43
2021/06/30 11:48:25;;;;;;;1.63;0.90;;;22.20;72.80;;;;;;5035100;28;20048;-43
2021/06/30 11:51:03;;;;;;;1.30;1.20;;;22.10;72.80;;;;;;5034829;28;20018;-43
2021/06/30 11:53:34;;;;;;;1.08;0.98;;;22.20;72.50;;;;;;5034915;28;20129;-43
2021/06/30 11:56:00;;;;;;;1.85;1.10;;;22.20;72.40;;;;;;5034616;28;20022;-43
2021/06/30 11:58:46;;;;;;;1.75;1.00;;;22.20;72.30;;;;;;5034944;28;20021;-43
2021/06/30 12:01:16;;;;;;;1.63;0.95;;;22.10;72.00;;;;;;5034794;28;20056;-43
2021/06/30 12:03:42;;;;;;;1.20;0.98;;;22.30;72.30;;;;;;5033636;28;20052;-43
2021/06/30 12:06:24;;;;;;;3.25;1.20;;;22.30;72.40;;;;;;5034770;28;20547;-43
2021/06/30 12:09:06;;;;;;;1.55;1.00;;;22.20;72.20;;;;;;5034609;28;20079;-43
2021/06/30 12:11:33;;;;;;;1.17;0.77;;;22.30;72.50;;;;;;5034595;28;20067;-43
2021/06/30 12:14:08;;;;;;;0.90;0.80;;;22.50;72.60;;;;;;5034570;28;20024;-42
2021/06/30 12:16:42;;;;;;;1.85;0.82;;;22.30;72.30;;;;;;5034248;28;20037;-44
2021/06/30 12:19:19;;;;;;;0.80;0.80;;;22.30;72.20;;;;;;5034166;28;20022;-43
2021/06/30 12:21:46;;;;;;;2.30;0.70;;;22.30;72.30;;;;;;5034403;28;20029;-43
2021/06/30 12:24:17;;;;;;;1.27;0.80;;;22.30;72.30;;;;;;5034303;28;20033;-43
2021/06/30 12:27:06;;;;;;;2.35;0.70;;;22.10;72.20;;;;;;5034294;28;20025;-43
2021/06/30 12:29:34;;;;;;;2.45;0.82;;;22.30;72.20;;;;;;5032911;28;20083;-43
2021/06/30 12:32:02;;;;;;;1.65;1.17;;;22.20;72.90;;;;;;5033983;28;20026;-42
2021/06/30 12:34:28;;;;;;;0.85;0.68;;;22.20;72.20;;;;;;5033939;28;20472;-44
2021/06/30 12:36:53;;;;;;;0.70;0.70;;;22.30;71.90;;;;;;5034242;28;20039;-43
2021/06/30 12:39:29;;;;;;;1.05;0.50;;;22.20;72.40;;;;;;5033651;28;20021;-43
2021/06/30 12:42:01;;;;;;;1.80;0.80;;;22.30;72.30;;;;;;5033758;28;20480;-42
2021/06/30 12:44:29;;;;;;;0.60;0.60;;;22.30;72.30;;;;;;5034091;28;20033;-43
2021/06/30 12:47:08;;;;;;;0.85;0.40;;;22.20;72.20;;;;;;5033715;28;20018;-42
2021/06/30 12:49:34;;;;;;;1.67;0.50;;;22.30;72.30;;;;;;5034017;28;20032;-43
2021/06/30 12:52:00;;;;;;;0.68;0.68;;;22.30;72.20;;;;;;5033824;28;20104;-43